Terminal Aerodrome Forecast
Issued by NWS Albany, NY

Home | Current Version | Previous Version | Text Only | Print | Product List | Glossary On
Versions: 1 2 3 4 5 6 7 8 9 10 11 12 13 14
000
FTUS41 KALY 201100
TAFPOU
TAF
KPOU 201134Z 2012/2112 VRB03KT P6SM OVC035
      TEMPO 2014/2016 SCT035
     FM201600 17006KT P6SM SCT030 BKN250
     FM202300 VRB03KT P6SM SCT040 BKN250
     FM210500 00000KT 5SM -SHRA BR SCT020 OVC035=

USA.gov is the U.S. government's official web portal to all federal, state and local government web resources and services.